createdAt,value
2018-06-08T00:01:13.651Z,67.28
2018-06-08T00:03:42.329Z,68.12
2018-06-08T00:06:11.015Z,68.03
2018-06-08T00:08:39.576Z,69.04
2018-06-08T00:11:08.266Z,67.95
2018-06-08T00:13:36.967Z,69.92
2018-06-08T00:16:05.562Z,70.85
2018-06-08T00:18:34.236Z,70.55
2018-06-08T00:21:03.551Z,70.70
2018-06-08T00:23:32.178Z,71.07
2018-06-08T00:26:00.804Z,70.12
2018-06-08T00:28:29.489Z,70.90
2018-06-08T00:30:58.110Z,69.93
2018-06-08T00:33:26.738Z,70.85
2018-06-08T00:35:55.443Z,71.26
2018-06-08T00:38:23.985Z,71.64
2018-06-08T00:40:53.427Z,71.50
2018-06-08T00:43:22.700Z,71.48
2018-06-08T00:45:51.270Z,72.86
2018-06-08T00:48:19.893Z,71.68
2018-06-08T00:50:48.475Z,71.92
2018-06-08T00:53:17.138Z,72.43
2018-06-08T00:55:45.815Z,73.39
2018-06-08T00:58:14.429Z,71.26
2018-06-08T01:00:43.114Z,72.41
2018-06-08T01:03:11.634Z,71.90
2018-06-08T01:05:40.284Z,72.71
2018-06-08T01:08:08.966Z,72.90
2018-06-08T01:10:37.549Z,72.55
2018-06-08T01:13:06.233Z,73.29
2018-06-08T01:15:35.366Z,74.67
2018-06-08T01:18:04.075Z,76.04
2018-06-08T01:20:33.539Z,73.93
2018-06-08T01:23:02.205Z,76.31
2018-06-08T01:25:30.722Z,74.95
2018-06-08T01:27:59.330Z,76.19
2018-06-08T01:30:28.001Z,75.54
2018-06-08T01:32:56.534Z,75.84
2018-06-08T01:35:26.165Z,74.75
2018-06-08T01:37:55.355Z,77.11
2018-06-08T01:40:24.514Z,77.44
2018-06-08T01:42:53.074Z,76.45
2018-06-08T01:45:21.633Z,78.68
2018-06-08T01:47:50.284Z,76.88
2018-06-08T01:50:18.802Z,76.74
2018-06-08T01:52:47.494Z,77.58
2018-06-08T01:55:16.713Z,77.79
2018-06-08T01:57:45.332Z,77.07
2018-06-08T02:00:14.021Z,76.50
2018-06-08T02:02:42.600Z,76.30
2018-06-08T02:05:11.287Z,75.77
2018-06-08T02:07:39.905Z,76.47
2018-06-08T02:10:08.555Z,77.48
2018-06-08T02:12:37.154Z,77.26
2018-06-08T02:15:05.824Z,78.26
2018-06-08T02:17:34.727Z,78.25
2018-06-08T02:20:03.398Z,77.90
2018-06-08T02:22:32.099Z,78.26
2018-06-08T02:25:00.746Z,78.12
2018-06-08T02:27:29.454Z,78.56
2018-06-08T02:29:58.343Z,78.47
2018-06-08T02:32:27.028Z,78.38
2018-06-08T02:34:55.714Z,77.71
2018-06-08T02:37:24.497Z,77.32
2018-06-08T02:39:53.084Z,76.45
2018-06-08T02:42:21.920Z,75.31
2018-06-08T02:44:50.502Z,76.05
2018-06-08T02:47:19.058Z,77.81
2018-06-08T02:49:47.728Z,78.77
2018-06-08T02:52:16.307Z,78.42
2018-06-08T02:54:44.893Z,79.96
2018-06-08T02:57:13.521Z,80.84
2018-06-08T02:59:42.157Z,81.64
2018-06-08T03:02:10.843Z,80.99
2018-06-08T03:04:39.455Z,81.26
2018-06-08T03:07:08.043Z,81.26
2018-06-08T03:09:36.919Z,80.61
2018-06-08T03:12:05.600Z,80.89
2018-06-08T03:14:34.269Z,81.10
2018-06-08T03:17:02.954Z,81.39
2018-06-08T03:19:32.394Z,81.62
2018-06-08T03:22:01.610Z,81.88
2018-06-08T03:24:30.278Z,81.05
2018-06-08T03:27:00.154Z,82.35
2018-06-08T03:29:28.750Z,82.50
2018-06-08T03:31:57.335Z,82.30
2018-06-08T03:34:25.889Z,81.55
2018-06-08T03:36:54.433Z,81.96
2018-06-08T03:39:23.070Z,81.36
2018-06-08T03:41:51.702Z,81.67
2018-06-08T03:44:20.283Z,80.84
2018-06-08T03:46:48.920Z,81.49
2018-06-08T03:49:17.504Z,81.27
2018-06-08T03:51:46.035Z,81.86
2018-06-08T03:54:14.538Z,81.46
2018-06-08T03:56:43.243Z,82.99
2018-06-08T03:59:11.936Z,81.98
2018-06-08T04:01:40.623Z,81.68
2018-06-08T04:04:09.215Z,81.42
2018-06-08T04:06:37.790Z,80.39
2018-06-08T04:09:08.354Z,80.38
2018-06-08T04:11:37.179Z,80.31
2018-06-08T04:14:05.889Z,79.38
2018-06-08T04:16:34.473Z,78.61
2018-06-08T04:19:03.095Z,78.49
2018-06-08T04:21:31.722Z,77.30
2018-06-08T04:24:00.324Z,77.35
2018-06-08T04:26:29.014Z,76.27
2018-06-08T04:28:57.591Z,75.84
2018-06-08T04:31:26.767Z,75.29
2018-06-08T04:33:55.371Z,74.49
2018-06-08T04:36:23.870Z,74.69
2018-06-08T04:38:52.930Z,74.16
2018-06-08T04:41:21.470Z,74.08
2018-06-08T04:43:50.114Z,73.47
2018-06-08T04:46:18.699Z,73.16
2018-06-08T04:48:47.802Z,72.46
2018-06-08T04:51:16.372Z,71.84
2018-06-08T04:53:44.966Z,71.73
2018-06-08T04:56:13.745Z,71.28
2018-06-08T04:58:42.859Z,71.19
2018-06-08T05:01:11.527Z,70.70
2018-06-08T05:03:40.211Z,69.93
2018-06-08T05:06:08.797Z,69.63
2018-06-08T05:08:37.481Z,69.47
2018-06-08T05:11:06.118Z,69.25
2018-06-08T05:13:34.745Z,69.09
2018-06-08T05:16:03.363Z,68.77
2018-06-08T05:18:32.013Z,68.61
2018-06-08T05:21:00.654Z,68.43
2018-06-08T05:23:29.283Z,67.72
2018-06-08T05:25:58.935Z,67.64
2018-06-08T05:28:27.680Z,67.36
2018-06-08T05:30:56.346Z,67.07
2018-06-08T05:33:25.084Z,66.82
2018-06-08T05:35:53.734Z,66.68
2018-06-08T05:38:22.350Z,66.30
2018-06-08T05:40:50.851Z,65.89
2018-06-08T05:43:19.481Z,65.96
2018-06-08T05:45:48.092Z,65.91
2018-06-08T05:48:16.711Z,65.18
2018-06-08T05:50:45.433Z,65.07
2018-06-08T05:53:14.630Z,64.54
2018-06-08T05:55:43.215Z,63.44
2018-06-08T05:58:11.718Z,63.42
2018-06-08T06:00:40.380Z,62.47
2018-06-08T06:03:09.077Z,62.24
2018-06-08T06:05:37.957Z,60.95
2018-06-08T06:08:07.464Z,60.31
2018-06-08T06:10:36.094Z,61.02
2018-06-08T06:13:04.731Z,61.07
2018-06-08T06:15:33.338Z,60.43
2018-06-08T06:18:02.013Z,61.20
2018-06-08T06:20:30.684Z,60.62
2018-06-08T06:22:59.366Z,60.76
2018-06-08T06:25:28.008Z,60.98
2018-06-08T06:27:56.536Z,60.23
2018-06-08T06:30:25.212Z,59.47
2018-06-08T06:32:53.752Z,58.71
2018-06-08T06:35:22.315Z,58.61
2018-06-08T06:37:51.482Z,58.78
2018-06-08T06:40:20.674Z,58.05
2018-06-08T06:42:49.362Z,59.57
2018-06-08T06:45:18.034Z,59.70
2018-06-08T06:47:46.561Z,59.30
2018-06-08T06:50:15.223Z,59.15
2018-06-08T06:52:43.896Z,59.30
2018-06-08T06:55:12.544Z,58.54
2018-06-08T06:57:41.208Z,58.63
2018-06-08T07:00:09.811Z,58.67
2018-06-08T07:02:38.364Z,58.96
2018-06-08T07:05:07.166Z,58.50
2018-06-08T07:07:35.654Z,58.09
2018-06-08T07:10:04.359Z,57.40
2018-06-08T07:12:32.970Z,58.01
2018-06-08T07:15:01.554Z,57.49
2018-06-08T07:17:30.094Z,58.08
2018-06-08T07:19:58.723Z,56.53
2018-06-08T07:22:27.354Z,57.25
2018-06-08T07:24:55.939Z,57.06
2018-06-08T07:27:24.571Z,58.79
2018-06-08T07:29:53.153Z,56.95
2018-06-08T07:32:21.804Z,56.84
2018-06-08T07:34:50.418Z,56.23
2018-06-08T07:37:19.024Z,54.24
2018-06-08T07:39:48.507Z,55.65
2018-06-08T07:42:17.602Z,52.39
2018-06-08T07:44:47.003Z,51.83
2018-06-08T07:47:16.303Z,53.44
2018-06-08T07:49:44.989Z,52.64
2018-06-08T07:52:13.653Z,52.11
2018-06-08T07:54:42.259Z,52.03
2018-06-08T07:57:10.833Z,52.70
2018-06-08T07:59:39.752Z,53.61
2018-06-08T08:02:08.520Z,55.73
2018-06-08T08:04:37.170Z,55.57
2018-06-08T08:07:05.888Z,55.02
2018-06-08T08:09:34.471Z,55.53
2018-06-08T08:12:03.874Z,53.09
2018-06-08T08:14:32.455Z,55.69
2018-06-08T08:17:01.141Z,53.74
2018-06-08T08:19:29.832Z,54.17
2018-06-08T08:21:58.942Z,52.40
2018-06-08T08:24:27.540Z,51.57
2018-06-08T08:26:56.110Z,54.45
2018-06-08T08:29:24.776Z,52.11
2018-06-08T08:31:53.460Z,50.93
2018-06-08T08:34:22.096Z,50.51
2018-06-08T08:36:50.654Z,51.72
2018-06-08T08:39:20.582Z,50.98
2018-06-08T08:41:49.225Z,53.48
2018-06-08T08:44:17.808Z,53.75
2018-06-08T08:46:46.491Z,51.27
2018-06-08T08:49:15.187Z,50.21
2018-06-08T08:51:43.869Z,48.07
2018-06-08T08:54:12.832Z,45.42
2018-06-08T08:56:41.440Z,44.77
2018-06-08T08:59:10.946Z,45.84
2018-06-08T09:01:39.552Z,46.65
2018-06-08T09:04:08.208Z,48.44
2018-06-08T09:06:36.897Z,48.51
2018-06-08T09:09:07.436Z,50.68
2018-06-08T09:11:36.105Z,48.93
2018-06-08T09:14:04.795Z,45.05
2018-06-08T09:16:33.479Z,48.22
2018-06-08T09:19:02.107Z,49.94
2018-06-08T09:21:30.703Z,47.80
2018-06-08T09:23:59.258Z,48.91
2018-06-08T09:26:27.912Z,46.06
2018-06-08T09:28:56.574Z,47.23
2018-06-08T09:31:25.714Z,44.09
2018-06-08T09:33:54.377Z,46.21
2018-06-08T09:36:23.450Z,46.61
2018-06-08T09:38:52.014Z,40.94
2018-06-08T09:41:20.741Z,45.62
2018-06-08T09:43:49.487Z,43.76
2018-06-08T09:46:18.115Z,41.69
2018-06-08T09:48:46.746Z,44.32
2018-06-08T09:51:15.379Z,46.40
2018-06-08T09:53:44.067Z,43.00
2018-06-08T09:56:12.646Z,43.67
2018-06-08T09:58:41.262Z,43.55
2018-06-08T10:01:09.862Z,42.56
2018-06-08T10:03:38.451Z,42.70
2018-06-08T10:06:07.041Z,43.25
2018-06-08T10:08:35.663Z,41.97
2018-06-08T10:11:04.350Z,40.81
2018-06-08T10:13:33.038Z,40.52
2018-06-08T10:16:01.617Z,39.62
2018-06-08T10:18:30.251Z,40.13
2018-06-08T10:20:58.886Z,41.48
2018-06-08T10:23:27.571Z,41.56
2018-06-08T10:25:56.359Z,40.61
2018-06-08T10:28:25.084Z,40.04
2018-06-08T10:30:53.594Z,41.10
2018-06-08T10:33:22.155Z,41.60
2018-06-08T10:35:51.566Z,40.88
2018-06-08T10:38:20.043Z,40.65
2018-06-08T10:40:48.727Z,42.29
2018-06-08T10:43:17.257Z,42.42
2018-06-08T10:45:45.756Z,41.61
2018-06-08T10:48:15.067Z,41.39
2018-06-08T10:50:43.663Z,41.19
2018-06-08T10:53:12.305Z,41.45
2018-06-08T10:55:41.709Z,40.52
2018-06-08T10:58:10.344Z,40.34
2018-06-08T11:00:38.976Z,40.93
2018-06-08T11:03:07.525Z,40.92
2018-06-08T11:05:36.091Z,39.29
2018-06-08T11:08:04.697Z,39.17
2018-06-08T11:10:33.210Z,37.46
2018-06-08T11:13:02.606Z,37.88
2018-06-08T11:15:31.287Z,37.84
2018-06-08T11:17:59.774Z,38.46
2018-06-08T11:20:28.458Z,38.68
2018-06-08T11:22:57.139Z,38.42
2018-06-08T11:25:26.450Z,38.07
2018-06-08T11:27:55.086Z,36.89
2018-06-08T11:30:23.661Z,39.58
2018-06-08T11:32:52.976Z,39.90
2018-06-08T11:35:21.698Z,40.54
2018-06-08T11:37:50.306Z,40.60
2018-06-08T11:40:18.973Z,40.80
2018-06-08T11:42:48.367Z,40.76
2018-06-08T11:45:17.052Z,40.69
2018-06-08T11:47:45.736Z,39.47
2018-06-08T11:50:14.526Z,39.55
2018-06-08T11:52:43.876Z,39.62
2018-06-08T11:55:12.975Z,38.14
2018-06-08T11:57:42.342Z,38.14
2018-06-08T12:00:11.039Z,38.71
2018-06-08T12:02:39.535Z,39.69
2018-06-08T12:05:08.137Z,38.64
2018-06-08T12:07:36.756Z,37.69
2018-06-08T12:10:05.755Z,39.30
2018-06-08T12:12:34.350Z,40.34
2018-06-08T12:15:04.488Z,38.82
2018-06-08T12:17:33.070Z,38.51
2018-06-08T12:20:02.474Z,39.45
2018-06-08T12:22:31.445Z,38.65
2018-06-08T12:25:00.075Z,39.34
2018-06-08T12:27:28.695Z,39.10
2018-06-08T12:29:57.846Z,39.18
2018-06-08T12:32:27.295Z,39.64
2018-06-08T12:34:56.406Z,39.14
2018-06-08T12:37:24.957Z,39.26
2018-06-08T12:39:53.612Z,39.60
2018-06-08T12:42:22.774Z,38.87
2018-06-08T12:44:52.314Z,39.05
2018-06-08T12:47:20.862Z,39.42
2018-06-08T12:49:49.423Z,39.43
2018-06-08T12:52:18.070Z,38.49
2018-06-08T12:54:46.694Z,39.84
2018-06-08T12:57:15.827Z,38.74
2018-06-08T12:59:44.398Z,38.59
2018-06-08T13:02:13.671Z,39.00
2018-06-08T13:04:42.298Z,37.82
2018-06-08T13:07:10.898Z,38.32
2018-06-08T13:09:39.520Z,38.28
2018-06-08T13:12:08.820Z,38.67
2018-06-08T13:14:37.344Z,36.98
2018-06-08T13:17:07.061Z,36.54
2018-06-08T13:19:36.290Z,37.09
2018-06-08T13:22:04.943Z,36.85
2018-06-08T13:24:33.706Z,37.63
2018-06-08T13:27:02.308Z,36.00
2018-06-08T13:29:30.948Z,36.34
2018-06-08T13:31:59.588Z,35.68
2018-06-08T13:34:28.156Z,37.06
2018-06-08T13:36:57.003Z,35.18
2018-06-08T13:39:25.985Z,35.76
2018-06-08T13:41:55.023Z,36.80
2018-06-08T13:44:23.610Z,35.59
2018-06-08T13:46:52.260Z,34.85
2018-06-08T13:49:20.935Z,34.05
2018-06-08T13:51:49.558Z,35.29
2018-06-08T13:54:18.166Z,34.03
2018-06-08T13:56:46.789Z,33.37
2018-06-08T13:59:15.396Z,31.84
2018-06-08T14:01:44.350Z,29.86
2018-06-08T14:04:13.218Z,30.15
2018-06-08T14:06:41.887Z,31.41
2018-06-08T14:09:10.448Z,30.36
2018-06-08T14:11:38.955Z,30.18
2018-06-08T14:14:07.492Z,30.86
2018-06-08T14:16:36.092Z,31.27
2018-06-08T14:19:04.908Z,31.73
2018-06-08T14:21:33.482Z,30.41
2018-06-08T14:24:02.074Z,31.36
2018-06-08T14:26:30.652Z,30.55
2018-06-08T14:28:59.190Z,30.59
2018-06-08T14:31:27.873Z,31.32
2018-06-08T14:33:56.561Z,31.95
2018-06-08T14:36:25.961Z,31.24
2018-06-08T14:38:54.695Z,30.69
2018-06-08T14:41:23.342Z,30.60
2018-06-08T14:43:52.071Z,28.90
2018-06-08T14:46:21.214Z,30.92
2018-06-08T14:48:50.002Z,29.84
2018-06-08T14:51:18.592Z,30.28
2018-06-08T14:53:47.271Z,29.50
2018-06-08T14:56:16.675Z,30.73
2018-06-08T14:58:45.367Z,28.67
2018-06-08T15:01:13.922Z,29.93
2018-06-08T15:03:43.191Z,30.10
2018-06-08T15:06:11.719Z,29.38
2018-06-08T15:08:40.408Z,28.74
2018-06-08T15:11:09.096Z,29.77
2018-06-08T15:13:37.586Z,30.44
2018-06-08T15:16:06.315Z,28.51
2018-06-08T15:18:34.902Z,29.25
2018-06-08T15:21:03.480Z,29.63
2018-06-08T15:23:32.118Z,30.62
2018-06-08T15:26:00.719Z,29.39
2018-06-08T15:28:29.222Z,29.82
2018-06-08T15:30:57.826Z,29.57
2018-06-08T15:33:26.443Z,30.67
2018-06-08T15:35:55.067Z,29.04
2018-06-08T15:38:23.711Z,29.90
2018-06-08T15:40:52.396Z,29.96
2018-06-08T15:43:21.081Z,29.01
2018-06-08T15:45:49.814Z,28.86
2018-06-08T15:48:19.427Z,29.06
2018-06-08T15:50:48.058Z,28.55
2018-06-08T15:53:16.683Z,28.32
2018-06-08T15:55:45.247Z,29.20
2018-06-08T15:58:14.362Z,28.66
2018-06-08T16:00:42.905Z,29.31
2018-06-08T16:03:11.435Z,28.81
2018-06-08T16:05:40.887Z,29.00
2018-06-08T16:08:09.674Z,29.41
2018-06-08T16:10:38.208Z,28.32
2018-06-08T16:13:06.888Z,29.54
2018-06-08T16:15:35.482Z,29.78
2018-06-08T16:18:04.106Z,29.38
2018-06-08T16:20:32.591Z,30.91
2018-06-08T16:23:01.122Z,30.50
2018-06-08T16:25:30.328Z,31.17
2018-06-08T16:27:58.870Z,30.30
2018-06-08T16:30:27.490Z,31.26
2018-06-08T16:32:56.232Z,30.00
2018-06-08T16:35:24.823Z,30.92
2018-06-08T16:37:53.485Z,30.41
2018-06-08T16:40:22.991Z,30.49
2018-06-08T16:42:51.574Z,30.40
2018-06-08T16:45:20.240Z,31.22
2018-06-08T16:47:49.275Z,31.05
2018-06-08T16:50:17.945Z,31.34
2018-06-08T16:52:46.519Z,30.06
2018-06-08T16:55:15.110Z,30.23
2018-06-08T16:57:43.775Z,30.13
2018-06-08T17:00:12.338Z,29.96
2018-06-08T17:02:40.956Z,30.12
2018-06-08T17:05:09.534Z,31.01
2018-06-08T17:07:38.938Z,31.77
2018-06-08T17:10:07.624Z,31.13
2018-06-08T17:12:36.285Z,31.22
2018-06-08T17:15:04.995Z,30.97
2018-06-08T17:17:33.598Z,31.15
2018-06-08T17:20:02.160Z,32.04
2018-06-08T17:22:30.844Z,32.23
2018-06-08T17:24:59.474Z,31.29
2018-06-08T17:27:28.023Z,33.40
2018-06-08T17:29:56.563Z,32.58
2018-06-08T17:32:25.711Z,31.72
2018-06-08T17:34:55.093Z,31.36
2018-06-08T17:37:23.742Z,31.64
2018-06-08T17:39:52.382Z,31.68
2018-06-08T17:42:20.942Z,32.67
2018-06-08T17:44:49.632Z,31.83
2018-06-08T17:47:18.215Z,32.88
2018-06-08T17:49:46.738Z,33.15
2018-06-08T17:52:15.838Z,32.35
2018-06-08T17:54:44.505Z,32.32
2018-06-08T17:57:13.271Z,32.79
2018-06-08T17:59:42.000Z,33.33
2018-06-08T18:02:10.571Z,33.03
2018-06-08T18:04:39.142Z,33.56
2018-06-08T18:07:07.790Z,33.64
2018-06-08T18:09:36.321Z,34.27
2018-06-08T18:12:04.920Z,34.51
2018-06-08T18:14:33.455Z,34.15
2018-06-08T18:17:02.025Z,33.66
2018-06-08T18:19:30.607Z,34.31
2018-06-08T18:21:59.211Z,33.45
2018-06-08T18:24:27.814Z,33.92
2018-06-08T18:26:57.075Z,34.44
2018-06-08T18:29:25.664Z,33.85
2018-06-08T18:31:54.282Z,35.02
2018-06-08T18:34:22.923Z,34.63
2018-06-08T18:36:52.429Z,34.29
2018-06-08T18:39:21.114Z,34.72
2018-06-08T18:41:49.801Z,34.39
2018-06-08T18:44:18.333Z,34.98
2018-06-08T18:46:47.405Z,35.35
2018-06-08T18:49:16.218Z,35.73
2018-06-08T18:51:44.952Z,36.01
2018-06-08T18:54:13.550Z,36.03
2018-06-08T18:56:42.215Z,36.04
2018-06-08T18:59:10.904Z,36.39
2018-06-08T19:01:39.588Z,36.67
2018-06-08T19:04:08.208Z,36.91
2018-06-08T19:06:36.832Z,37.36
2018-06-08T19:09:08.338Z,37.15
2018-06-08T19:11:37.839Z,36.95
2018-06-08T19:14:06.686Z,37.48
2018-06-08T19:16:35.198Z,37.26
2018-06-08T19:19:04.243Z,37.50
2018-06-08T19:21:32.857Z,38.17
2018-06-08T19:24:01.454Z,38.51
2018-06-08T19:26:30.029Z,39.10
2018-06-08T19:28:59.167Z,39.12
2018-06-08T19:31:27.804Z,39.75
2018-06-08T19:33:56.495Z,39.69
2018-06-08T19:36:25.057Z,40.32
2018-06-08T19:38:53.763Z,40.96
2018-06-08T19:41:22.457Z,40.89
2018-06-08T19:43:51.131Z,41.09
2018-06-08T19:46:19.623Z,42.08
2018-06-08T19:48:48.254Z,41.91
2018-06-08T19:51:16.786Z,42.73
2018-06-08T19:53:46.024Z,42.59
2018-06-08T19:56:14.615Z,43.07
2018-06-08T19:58:43.241Z,43.19
2018-06-08T20:01:12.746Z,43.58
2018-06-08T20:03:41.238Z,44.14
2018-06-08T20:06:09.947Z,44.00
2018-06-08T20:08:39.230Z,44.22
2018-06-08T20:11:07.844Z,44.89
2018-06-08T20:13:36.399Z,44.70
2018-06-08T20:16:05.060Z,45.15
2018-06-08T20:18:33.746Z,45.47
2018-06-08T20:21:02.267Z,45.85
2018-06-08T20:23:31.567Z,46.76
2018-06-08T20:26:00.332Z,46.69
2018-06-08T20:28:29.055Z,46.77
2018-06-08T20:30:57.606Z,47.02
2018-06-08T20:33:26.163Z,47.39
2018-06-08T20:35:54.748Z,47.88
2018-06-08T20:38:23.334Z,47.51
2018-06-08T20:40:51.930Z,48.19
2018-06-08T20:43:20.539Z,48.28
2018-06-08T20:45:49.284Z,48.46
2018-06-08T20:48:17.869Z,48.81
2018-06-08T20:50:46.558Z,49.11
2018-06-08T20:53:15.243Z,49.23
2018-06-08T20:55:44.031Z,48.77
2018-06-08T20:58:22.522Z,48.95
2018-06-08T21:00:51.099Z,49.34
2018-06-08T21:03:19.918Z,50.17
2018-06-08T21:05:48.538Z,49.50
2018-06-08T21:08:17.181Z,49.40
2018-06-08T21:10:46.398Z,49.78
2018-06-08T21:13:15.003Z,50.16
2018-06-08T21:15:43.741Z,50.07
2018-06-08T21:18:12.378Z,50.33
2018-06-08T21:20:40.920Z,50.23
2018-06-08T21:23:09.886Z,50.72
2018-06-08T21:25:38.414Z,50.57
2018-06-08T21:28:06.906Z,50.73
2018-06-08T21:30:35.489Z,50.85
2018-06-08T21:33:04.135Z,50.92
2018-06-08T21:35:33.017Z,50.87
2018-06-08T21:38:02.119Z,51.33
2018-06-08T21:40:30.702Z,52.99
2018-06-08T21:42:59.739Z,52.08
2018-06-08T21:45:28.281Z,52.36
2018-06-08T21:47:57.578Z,52.15
2018-06-08T21:50:26.267Z,51.88
2018-06-08T21:52:54.896Z,52.35
2018-06-08T21:55:23.423Z,52.34
2018-06-08T21:57:51.926Z,52.63
2018-06-08T22:00:20.460Z,53.69
2018-06-08T22:02:49.120Z,52.95
2018-06-08T22:05:18.323Z,53.82
2018-06-08T22:07:47.580Z,53.85
2018-06-08T22:10:16.205Z,53.76
2018-06-08T22:12:44.783Z,53.83
2018-06-08T22:15:13.362Z,54.56
2018-06-08T22:17:42.007Z,53.29
2018-06-08T22:20:10.691Z,54.99
2018-06-08T22:22:39.377Z,54.59
2018-06-08T22:25:08.065Z,55.00
2018-06-08T22:27:37.350Z,55.19
2018-06-08T22:30:06.046Z,54.69
2018-06-08T22:32:34.576Z,55.25
2018-06-08T22:35:03.224Z,55.03
2018-06-08T22:37:31.838Z,55.84
2018-06-08T22:40:00.334Z,56.15
2018-06-08T22:42:28.888Z,55.29
2018-06-08T22:44:57.473Z,56.09
2018-06-08T22:47:26.074Z,56.10
2018-06-08T22:49:55.323Z,55.72
2018-06-08T22:52:24.482Z,56.73
2018-06-08T22:54:53.002Z,56.17
2018-06-08T22:57:21.583Z,55.69
2018-06-08T22:59:50.114Z,56.92
2018-06-08T23:02:18.749Z,56.23
2018-06-08T23:04:47.333Z,56.52
2018-06-08T23:07:15.916Z,57.19
2018-06-08T23:09:44.461Z,57.49
2018-06-08T23:12:13.033Z,59.02
2018-06-08T23:14:41.719Z,58.62
2018-06-08T23:17:10.263Z,58.62
2018-06-08T23:19:38.932Z,60.53
2018-06-08T23:22:07.562Z,58.59
2018-06-08T23:24:36.200Z,58.85
2018-06-08T23:27:04.750Z,59.72
2018-06-08T23:29:33.366Z,59.91
2018-06-08T23:32:01.969Z,60.11
2018-06-08T23:34:30.633Z,60.65
2018-06-08T23:36:59.323Z,60.63
2018-06-08T23:39:27.930Z,60.19
2018-06-08T23:41:56.506Z,61.12
2018-06-08T23:44:25.150Z,62.94
2018-06-08T23:46:54.419Z,61.72
2018-06-08T23:49:22.966Z,62.90
2018-06-08T23:51:51.666Z,62.96
2018-06-08T23:54:20.325Z,62.46
2018-06-08T23:56:48.910Z,62.58
2018-06-08T23:59:18.206Z,63.10
